Nearby METAR Reports

 

EGQL - Leuchars Raf, United Kingdom
Distance from station: SW 17km
Updated: 21/05/2024 15:50
Light rain, Overcast
Light rain, Overcast
 Wind from E
Wind: E 15 km/h
Temperature: 11°C
Dew Point: 10°C
Humidity: 94%
Barometer: 1012 hPa
Summary: Light rain
Clouds: Overcast
Visibility: 10 km
Cloud details: Mostly cloudy 122 m
Overcast 183 m
2024/05/21 14:50 EGQL 211450Z 09008KT 9999 -RA BKN004 OVC006 11/10 Q1012 RMK YLO2
EGPN - Dundee/Riverside, United Kingdom
Distance from station: WSW 20km
Updated: 21/05/2024 16:20
Few Clouds
Few Clouds
 Wind from E
Wind: E 13 km/h
Temperature: 12°C
Dew Point: 10°C
Humidity: 88%
Barometer: 1012 hPa
Clouds: Few Clouds
Visibility: 10 km
Cloud details: Few Clouds 244 m
2024/05/21 15:20 EGPN 211520Z 09007KT 9999 FEW008 12/10 Q1012
 
EGPH - Edinburgh Airpor, United Kingdom
Distance from station: SSW 74km
Updated: 21/05/2024 16:20
Partly cloudy
Partly cloudy
 Wind from ENE
Wind: ENE 17 km/h
Temperature: 14°C
Dew Point: 11°C
Humidity: 82%
Barometer: 1012 hPa
Clouds: Partly cloudy
Visibility: 10 km
Cloud details: Partly cloudy 396 m
2024/05/21 15:20 EGPH 211520Z 06009KT 9999 SCT013 14/11 Q1012
EGPD - Aberdeen/Dyce, United Kingdom
Distance from station: NNE 82km
Updated: 21/05/2024 16:20
Mostly cloudy
Mostly cloudy
 Wind from E
Wind: E 13 km/h
Temperature: 13°C
Dew Point: 11°C
Humidity: 88%
Barometer: 1013 hPa
Clouds: Mostly cloudy
Visibility: 6 km
Cloud details: Mostly cloudy 183 m
2024/05/21 15:20 EGPD 211520Z 09007KT 6000 2500E BKN006 13/11 Q1013